• Join FlightAware (Why Join?)
  • Login
  • US Flag 
01:34AM EDT


 

Airport Tracker/Info


-or-


 

Live Flight TrackerFlight Track Log ✈ N121JM ✈ 29-Apr-2013 ✈ KPHL - KSFO

Flight Track Log - Related Links

Times and Time Zones

All times are in EDT time to prevent confusion due to time zone crossing. See the N121JM flight status page for this flight to view local times or setup timezone preferences in your user account.

Time Position Orientation Groundspeed Altitude Reporting Facility
EDT Latitude Longitude Course Direction KTS MPH feet Rate Location/Type
11:41AM 39.8833 -75.2000 66° East 164 189 900  Level Philadelphia TRACON
11:42AM 39.9000 -75.1500 67° East 204 235 2,200 2,280 Climbing Philadelphia TRACON
11:43AM 39.9500 -75.0833 46° Northeast 268 308 4,800 2,760 Climbing Philadelphia TRACON
11:44AM 40.0333 -75.1000 351° North 284 327 8,000 2,340 Climbing Philadelphia TRACON
11:45AM 40.0667 -75.1833 298° West 289 333 9,500 960 Climbing Philadelphia TRACON
11:46AM 40.1000 -75.3000 291° West 325 374 10,000 780 Climbing Philadelphia TRACON
11:47AM 40.1383 -75.3731 304° West 336 387 10,900 1,680 Climbing New York Center
11:48AM 40.1786 -75.4653 300° West 365 420 12,800 1,500 Climbing New York Center
11:49AM 40.2283 -75.5722 301° West 355 409 13,900 1,380 Climbing New York Center
11:50AM 40.2853 -75.6578 311° West 350 403 15,700 1,860 Climbing New York Center
11:51AM 40.3500 -75.7575 310° West 350 403 17,800 1,680 Climbing New York Center
11:52AM 40.4281 -75.8778 310° West 373 429 19,200 1,620 Climbing New York Center
11:53AM 40.4583 -75.9972 288° West 381 438 21,000 1,740 Climbing New York Center
11:54AM 40.4786 -76.1489 280° West 399 459 22,700 1,740 Climbing New York Center
11:55AM 40.5033 -76.2928 283° West 410 472 24,600 1,680 Climbing New York Center
11:56AM 40.5253 -76.4447 281° West 417 480 26,200 1,680 Climbing New York Center
11:57AM 40.5494 -76.5917 282° West 417 480 28,100 1,860 Climbing New York Center
11:58AM 40.5647 -76.7431 278° West 417 480 30,000 1,800 Climbing New York Center
11:59AM 40.5781 -76.8919 277° West 411 473 31,700 1,560 Climbing New York Center
12:00PM 40.5911 -77.0408 277° West 411 473 33,100 1,380 Climbing New York Center
12:01PM 40.6039 -77.1894 277° West 411 473 34,600 1,440 Climbing New York Center
12:02PM 40.6189 -77.3358 278° West 411 473 36,100 1,380 Climbing New York Center
12:03PM 40.6292 -77.4847 275° West 411 473 37,400 1,020 Climbing New York Center
12:05PM 40.6581 -77.8653 276° West 406 467 39,800 720 Climbing Cleveland Center
12:06PM 40.6719 -78.0153 277° West 406 467 40,000 60 Climbing Cleveland Center
12:07PM 40.6836 -78.1681 276° West 411 473 40,000  Level Cleveland Center
12:08PM 40.6953 -78.3236 276° West 423 487 40,000  Level Cleveland Center
12:09PM 40.7067 -78.4794 276° West 423 487 40,000  Level Cleveland Center
12:10PM 40.7172 -78.6161 276° West 423 487 40,000  Level Cleveland Center
12:11PM 40.7281 -78.7692 275° West 423 487 40,000  Level Cleveland Center
12:12PM 40.7389 -78.9253 275° West 423 487 40,000  Level Cleveland Center
12:13PM 40.7536 -79.0783 277° West 423 487 40,000  Level Cleveland Center
12:14PM 40.7636 -79.2289 275° West 423 487 40,000  Level Cleveland Center
12:15PM 40.7739 -79.3878 275° West 423 487 40,000  Level Cleveland Center
12:16PM 40.7836 -79.5383 275° West 423 487 40,000  Level Cleveland Center
12:17PM 40.7933 -79.6944 275° West 423 487 40,000  Level Cleveland Center
12:18PM 40.8028 -79.8508 275° West 423 487 40,000  Level Cleveland Center
12:19PM 40.8119 -80.0097 274° West 423 487 40,000  Level Cleveland Center
12:20PM 40.8211 -80.1689 274° West 433 498 40,000  Level Cleveland Center
12:21PM 40.8297 -80.3225 274° West 433 498 40,000  Level Cleveland Center
12:22PM 40.8383 -80.4897 274° West 423 487 40,000  Level Cleveland Center
12:23PM 40.8447 -80.6436 273° West 423 487 40,000  Level Cleveland Center
12:24PM 40.8550 -80.7781 276° West 423 487 40,000  Level Cleveland Center
12:25PM 40.8608 -80.9344 273° West 423 487 40,000  Level Cleveland Center
12:26PM 40.8664 -81.1103 272° West 428 493 40,000  Level Cleveland Center
12:27PM 40.8739 -81.2531 274° West 433 498 40,000  Level Cleveland Center
12:28PM 40.8814 -81.4097 274° West 438 504 40,000  Level Cleveland Center
12:29PM 40.8864 -81.5664 272° West 443 510 40,000  Level Cleveland Center
12:30PM 40.8911 -81.7258 272° West 443 510 40,000  Level Cleveland Center
12:31PM 40.8956 -81.8989 272° West 438 504 40,000  Level Cleveland Center
12:32PM 40.8978 -82.0556 271° West 438 504 40,000  Level Cleveland Center
12:33PM 40.9019 -82.2150 272° West 438 504 40,000  Level Cleveland Center
12:34PM 40.9036 -82.3717 271° West 438 504 40,000  Level Cleveland Center
12:35PM 40.9117 -82.5256 274° West 433 498 40,000  Level Cleveland Center
12:36PM 40.9150 -82.6825 272° West 428 493 40,000  Level Cleveland Center
12:37PM 40.9203 -82.8419 273° West 428 493 40,000  Level Cleveland Center
12:38PM 40.9258 -82.9794 273° West 422 486 40,000  Level Cleveland Center
12:39PM 40.9328 -83.1364 273° West 427 491 40,000  Level Cleveland Center
12:40PM 40.9397 -83.2933 273° West 427 491 40,000  Level Cleveland Center
12:41PM 40.9464 -83.4478 273° West 427 491 40,000  Level Cleveland Center
12:42PM 40.9503 -83.6211 272° West 422 486 40,000  Level Cleveland Center
12:43PM 40.9564 -83.7781 273° West 427 491 40,000  Level Cleveland Center
12:44PM 40.9600 -83.9350 272° West 427 491 40,000  Level Cleveland Center
12:46PM 40.9653 -84.2014 272° West 420 483 40,000  Level Chicago Center
12:47PM 40.9683 -84.3547 272° West 418 481 40,000  Level Chicago Center
12:48PM 40.9694 -84.5078 271° West 417 480 40,000  Level Chicago Center
12:49PM 40.9722 -84.6611 271° West 417 480 40,000  Level Chicago Center
12:50PM 40.9742 -84.8133 271° West 415 478 40,000  Level Chicago Center
12:51PM 40.9756 -84.9678 271° West 418 481 40,000  Level Chicago Center
12:52PM 40.9781 -85.1206 271° West 416 479 40,000  Level Chicago Center
12:53PM 40.9933 -85.3014 276° West 413 475 40,000  Level Chicago Center
12:54PM 41.0142 -85.4497 281° West 408 470 40,000  Level Chicago Center
12:55PM 41.0336 -85.6006 280° West 414 476 40,000  Level Chicago Center
12:56PM 41.0536 -85.7544 280° West 421 484 40,000  Level Chicago Center
12:57PM 41.0731 -85.9067 280° West 419 482 40,000  Level Chicago Center
12:58PM 41.0944 -86.0603 281° West 423 487 40,000  Level Chicago Center
12:59PM 41.1131 -86.2122 279° West 418 481 40,000  Level Chicago Center
01:00PM 41.1364 -86.3969 280° West 422 486 40,000  Level Chicago Center
01:01PM 41.1558 -86.5506 280° West 423 487 40,000  Level Chicago Center
01:02PM 41.1614 -86.7075 273° West 433 498 40,000  Level Chicago Center
01:03PM 41.1625 -86.8669 271° West 427 491 40,000  Level Chicago Center
01:04PM 41.1642 -87.0219 271° West 423 487 40,000  Level Chicago Center
01:05PM 41.1658 -87.1761 271° West 423 487 40,000  Level Chicago Center
01:06PM 41.1664 -87.3325 270° West 425 489 40,000  Level Chicago Center
01:07PM 41.1675 -87.5172 271° West 421 484 40,000  Level Chicago Center
01:09PM 41.1686 -87.6703 271° West 416 479 40,000  Level Chicago Center
01:10PM 41.1683 -87.8231 270° West 415 478 40,000  Level Chicago Center
01:11PM 41.1683 -87.9758 270° West 412 474 40,000  Level Chicago Center
01:12PM 41.1692 -88.1264 270° West 407 468 40,000  Level Chicago Center
01:13PM 41.1681 -88.2769 269° West 407 468 40,000  Level Chicago Center
01:14PM 41.1686 -88.4258 270° West 404 465 40,000  Level Chicago Center
01:15PM 41.1675 -88.6042 270° West 404 465 40,000  Level Chicago Center
01:16PM 41.1658 -88.7550 269° West 409 471 40,000  Level Chicago Center
01:17PM 41.1672 -88.9078 271° West 413 475 40,000  Level Chicago Center
01:18PM 41.1658 -89.0561 269° West 406 467 40,000  Level Chicago Center
01:19PM 41.1647 -89.2103 270° West 402 463 40,000  Level Chicago Center
01:20PM 41.1628 -89.3578 269° West 402 463 40,000  Level Chicago Center
01:21PM 41.1650 -89.5053 271° West 402 463 40,000  Level Chicago Center
01:22PM 41.1675 -89.6825 271° West 403 464 40,000  Level Chicago Center
01:23PM 41.1706 -89.8306 272° West 404 465 40,000  Level Chicago Center
01:24PM 41.1717 -89.9781 271° West 403 464 40,000  Level Chicago Center
01:25PM 41.1731 -90.1269 271° West 406 467 40,000  Level Chicago Center
01:26PM 41.1750 -90.2758 271° West 405 466 40,000  Level Chicago Center
01:27PM 41.1742 -90.4567 270° West 410 472 40,000  Level Chicago Center
01:28PM 41.1753 -90.6078 271° West 411 473 40,000  Level Chicago Center
01:29PM 41.1756 -90.7594 270° West 412 474 40,000  Level Chicago Center
01:30PM 41.1758 -90.9081 270° West 407 468 40,000  Level Chicago Center
01:31PM 41.1756 -91.0567 270° West 405 466 40,000  Level Chicago Center
01:32PM 41.1747 -91.2067 270° West 406 467 40,000  Level Chicago Center
01:33PM 41.1753 -91.3872 270° West 408 470 40,000  Level Chicago Center
01:34PM 41.1744 -91.5367 270° West 406 467 40,000  Level Chicago Center
01:35PM 41.1739 -91.6811 270° West 405 466 40,000  Level Chicago Center
01:36PM 41.1722 -91.8311 269° West 408 470 40,000  Level Chicago Center
01:37PM 41.1706 -92.0100 269° West 408 470 40,000  Level Chicago Center
01:38PM 41.1697 -92.1611 270° West 412 474 40,000  Level Chicago Center
01:40PM 41.1686 -92.3111 269° West 412 474 40,000  Level Chicago Center
01:41PM 41.1664 -92.4619 269° West 413 475 40,000  Level Chicago Center
01:42PM 41.1656 -92.6169 270° West 421 484 40,000  Level Chicago Center
01:43PM 41.1622 -92.8000 269° West 420 483 40,000  Level Chicago Center
01:44PM 41.1600 -92.9508 269° West 416 479 40,000  Level Chicago Center
01:45PM 41.1567 -93.1356 269° West 418 481 40,000  Level Minneapolis Center
01:46PM 41.1533 -93.2889 268° West 420 483 40,000  Level Minneapolis Center
01:47PM 41.1508 -93.4425 269° West 421 484 40,000  Level Minneapolis Center
01:48PM 41.1486 -93.5936 269° West 418 481 40,000  Level Minneapolis Center
01:49PM 41.1453 -93.7489 268° West 421 484 40,000  Level Minneapolis Center
01:50PM 41.1411 -93.9367 268° West 428 493 40,000  Level Minneapolis Center
01:51PM 41.1375 -94.0953 268° West 432 497 40,000  Level Minneapolis Center
01:52PM 41.1331 -94.2525 268° West 432 497 40,000  Level Minneapolis Center
01:53PM 41.1286 -94.4117 268° West 434 499 40,000  Level Minneapolis Center
01:54PM 41.1222 -94.5917 267° West 434 499 40,000  Level Minneapolis Center
01:55PM 41.1189 -94.7186 268° West 432 497 40,000  Level Minneapolis Center
01:56PM 41.1125 -94.9131 268° West 437 503 40,000  Level Minneapolis Center
01:57PM 41.1069 -95.0731 267° West 435 501 40,000  Level Minneapolis Center
01:58PM 41.1006 -95.2358 267° West 438 504 40,000  Level Minneapolis Center
01:59PM 41.0942 -95.3975 267° West 438 504 40,000  Level Minneapolis Center
02:00PM 41.0867 -95.5578 266° West 436 502 40,000  Level Minneapolis Center
02:01PM 41.0794 -95.7511 267° West 434 499 40,000  Level Minneapolis Center
02:02PM 41.0725 -95.9119 267° West 434 499 40,000  Level Minneapolis Center
02:03PM 41.0661 -96.0736 267° West 434 499 40,000  Level Minneapolis Center
02:04PM 41.0597 -96.2353 267° West 434 499 40,000  Level Minneapolis Center
02:05PM 41.0519 -96.3961 266° West 433 498 40,000  Level Minneapolis Center
02:06PM 41.0450 -96.5553 267° West 432 497 40,000  Level Minneapolis Center
02:07PM 41.0386 -96.6808 266° West 429 494 40,000  Level Minneapolis Center
02:09PM 41.0283 -96.8697 266° West 428 493 40,000  Level Minneapolis Center
02:10PM 41.0203 -97.0275 266° West 428 493 40,000  Level Minneapolis Center
02:11PM 41.0100 -97.2164 266° West 429 494 40,000  Level Minneapolis Center
02:12PM 41.0039 -97.3419 266° West 428 493 40,000  Level Minneapolis Center
02:13PM 40.9942 -97.5253 266° West 428 493 40,000  Level Minneapolis Center
02:14PM 40.9853 -97.6814 266° West 425 489 40,000  Level Minneapolis Center
02:15PM 40.9753 -97.8375 265° West 426 490 40,000  Level Minneapolis Center
02:16PM 40.9664 -97.9950 266° West 427 491 40,000  Level Minneapolis Center
02:17PM 40.9553 -98.1833 266° West 428 493 40,000  Level Minneapolis Center
02:18PM 40.9453 -98.3400 265° West 427 491 40,000  Level Minneapolis Center
02:19PM 40.9350 -98.5000 265° West 427 491 40,000  Level Minneapolis Center
02:20PM 40.9244 -98.6567 265° West 428 493 40,000  Level Minneapolis Center
02:21PM 40.9139 -98.8114 265° West 426 490 40,000  Level Minneapolis Center
02:22PM 40.9039 -98.9644 265° West 420 483 40,000  Level Minneapolis Center
02:23PM 40.8942 -99.1175 265° West 418 481 40,000  Level Minneapolis Center
02:23PM 40.8872 -99.2161 265° West 418 481 40,000  Level Denver Center
02:25PM 40.8758 -99.3700 264° West 419 482 40,000  Level Denver Center
02:26PM 40.8647 -99.5233 265° West 418 481 40,000  Level Denver Center
02:27PM 40.8533 -99.6744 264° West 414 476 40,000  Level Denver Center
02:28PM 40.8406 -99.8450 264° West 412 474 40,000  Level Denver Center
02:29PM 40.8297 -99.9914 264° West 416 479 40,000  Level Denver Center
02:30PM 40.8158 -100.1608 264° West 417 480 40,000  Level Denver Center
02:31PM 40.8044 -100.3061 264° West 415 478 40,000  Level Denver Center
02:32PM 40.7908 -100.4767 264° West 417 480 40,000  Level Denver Center
02:33PM 40.7806 -100.5994 264° West 419 482 40,000 60 Level Denver Center
02:34PM 40.7647 -100.7789 263° West 426 490 40,200 360 Climbing Denver Center
02:35PM 40.7542 -100.9047 264° West 425 489 40,800 780 Climbing Denver Center
02:36PM 40.7367 -101.0997 263° West 419 482 41,800 840 Climbing Denver Center
02:37PM 40.7239 -101.2467 264° West 422 486 42,600 540 Climbing Denver Center
02:38PM 40.7086 -101.4153 263° West 416 479 43,000 180 Climbing Denver Center
02:39PM 40.6958 -101.5636 264° West 424 488 43,000  Level Denver Center
02:40PM 40.6842 -101.6861 263° West 423 487 43,000  Level Denver Center
02:41PM 40.6661 -101.8803 263° West 420 483 43,000  Level Denver Center
02:42PM 40.6500 -102.0506 263° West 422 486 43,000  Level Denver Center
02:43PM 40.6364 -102.1961 263° West 420 483 43,000  Level Denver Center
02:44PM 40.6200 -102.3664 263° West 422 486 43,000  Level Denver Center
02:45PM 40.6050 -102.5131 262° West 424 488 43,000  Level Denver Center
02:46PM 40.5897 -102.6683 263° West 423 487 43,000  Level Denver Center
02:47PM 40.5739 -102.8203 262° West 417 480 43,000  Level Denver Center
02:48PM 40.5575 -102.9722 262° West 416 479 43,000  Level Denver Center
02:49PM 40.5425 -103.1256 263° West 420 483 43,000  Level Denver Center
02:50PM 40.5253 -103.2781 262° West 417 480 43,000  Level Denver Center
02:51PM 40.5064 -103.4575 262° West 421 484 43,000  Level Denver Center
02:53PM 40.4900 -103.6114 262° West 424 488 43,000  Level Denver Center
02:54PM 40.4697 -103.7900 262° West 421 484 43,000  Level Denver Center
02:55PM 40.4528 -103.9458 262° West 430 495 43,000  Level Denver Center
02:56PM 40.4353 -104.0989 262° West 424 488 43,000  Level Denver Center
02:57PM 40.4181 -104.2536 262° West 425 489 43,000  Level Denver Center
02:58PM 40.4006 -104.4061 261° West 420 483 43,000  Level Denver Center
02:59PM 40.3792 -104.5847 261° West 423 487 43,000  Level Denver Center
03:00PM 40.3611 -104.7372 261° West 422 486 43,000  Level Denver Center
03:01PM 40.3431 -104.8878 261° West 417 480 43,000  Level Denver Center
03:02PM 40.3244 -105.0356 261° West 411 473 43,000  Level Denver Center
03:03PM 40.3058 -105.1819 261° West 406 467 43,000  Level Denver Center
03:04PM 40.2844 -105.3564 261° West 413 475 43,000  Level Denver Center
03:05PM 40.2608 -105.5308 260° West 414 476 43,000  Level Denver Center
03:06PM 40.2422 -105.6803 261° West 413 475 43,000  Level Denver Center
03:07PM 40.2242 -105.8294 261° West 412 474 43,000 240 Level Denver Center
03:08PM 40.2044 -105.9761 260° West 408 470 43,500 600 Climbing Denver Center
03:09PM 40.1867 -106.1211 261° West 403 464 44,300 660 Climbing Denver Center
03:10PM 40.1667 -106.2642 260° West 399 459 44,900 300 Climbing Denver Center
03:11PM 40.1472 -106.4081 260° West 400 460 45,000  Climbing Denver Center
03:12PM 40.1258 -106.5689 260° West 408 470 45,000  Level Denver Center
03:13PM 40.1067 -106.7067 260° West 405 466 45,000  Level Denver Center
03:14PM 40.0847 -106.8647 260° West 397 457 45,000  Level Denver Center
03:15PM 40.0664 -107.0003 260° West 397 457 45,000  Level Denver Center
03:16PM 40.0436 -107.1611 260° West 404 465 45,000  Level Denver Center
03:17PM 40.0228 -107.3000 259° West 407 468 45,000  Level Denver Center
03:18PM 40.0031 -107.4408 260° West 411 473 45,000  Level Denver Center
03:19PM 39.9797 -107.6075 260° West 419 482 45,000  Level Denver Center
03:21PM 39.9586 -107.7506 259° West 421 484 45,000  Level Denver Center
03:22PM 39.9328 -107.9203 259° West 426 490 45,000  Level Denver Center
03:23PM 39.9097 -108.0639 258° West 423 487 45,000  Level Denver Center
03:24PM 39.8839 -108.2325 259° West 425 489 45,000  Level Denver Center
03:25PM 39.8597 -108.3994 259° West 419 482 45,000  Level Denver Center
03:26PM 39.8342 -108.5678 259° West 427 491 45,000  Level Denver Center
03:27PM 39.8122 -108.7108 259° West 426 490 45,000  Level Denver Center
03:28PM 39.7850 -108.8783 258° West 431 496 45,000  Level Denver Center
03:29PM 39.7619 -109.0239 258° West 435 501 45,000  Level Denver Center
03:30PM 39.7342 -109.1969 258° West 440 506 45,000  Level Denver Center
03:30PM 39.7222 -109.2703 258° West 439 505 45,000  Level Salt Lake Center
03:31PM 39.6986 -109.4175 258° West 437 503 45,000  Level Salt Lake Center
03:32PM 39.6819 -109.5161 258° West 438 504 45,000  Level Denver Center
03:33PM 39.6586 -109.6647 259° West 439 505 45,000  Level Denver Center
03:34PM 39.6469 -109.7386 258° West 439 505 45,000  Level Salt Lake Center
03:35PM 39.6167 -109.9114 257° West 439 505 45,000  Level Salt Lake Center
03:35PM 39.6006 -110.0100 258° West 438 504 45,000  Level Denver Center
03:36PM 39.5706 -110.1822 257° West 440 506 45,000  Level Denver Center
03:38PM 39.5461 -110.3311 258° West 440 506 45,000  Level Denver Center
03:39PM 39.5125 -110.5278 258° West 439 505 45,000  Level Salt Lake Center
03:40PM 39.4836 -110.7003 258° West 439 505 45,000  Level Salt Lake Center
03:41PM 39.4575 -110.8478 257° West 439 505 45,000  Level Salt Lake Center
03:42PM 39.4261 -111.0181 257° West 437 503 45,000  Level Salt Lake Center
03:43PM 39.4003 -111.1656 257° West 439 505 45,000  Level Salt Lake Center
03:44PM 39.3750 -111.3053 257° West 441 507 45,000  Level Salt Lake Center
03:45PM 39.3428 -111.4864 257° West 433 498 45,000  Level Salt Lake Center
03:46PM 39.3156 -111.6347 257° West 427 491 45,000  Level Salt Lake Center
03:47PM 39.2878 -111.7844 257° West 428 493 45,000  Level Salt Lake Center
03:48PM 39.2603 -111.9358 257° West 432 497 45,000  Level Salt Lake Center
03:49PM 39.2325 -112.0864 257° West 432 497 45,000  Level Salt Lake Center
03:50PM 39.2042 -112.2358 256° West 430 495 45,000  Level Salt Lake Center
03:51PM 39.1767 -112.3844 257° West 427 491 45,000  Level Salt Lake Center
03:52PM 39.1472 -112.5333 256° West 429 494 45,000  Level Salt Lake Center
03:53PM 39.1142 -112.7111 257° West 426 490 45,000  Level Salt Lake Center
03:54PM 39.0833 -112.8608 255° West 423 487 45,000  Level Salt Lake Center
03:55PM 39.0567 -113.0036 257° West 422 486 45,000  Level Salt Lake Center
03:56PM 39.0264 -113.1500 255° West 423 487 45,000  Level Salt Lake Center
03:57PM 38.9969 -113.2969 256° West 424 488 45,000  Level Salt Lake Center
03:58PM 38.9672 -113.4442 255° West 425 489 45,000  Level Salt Lake Center
03:59PM 38.9372 -113.5911 255° West 427 491 45,000  Level Salt Lake Center
04:00PM 38.9075 -113.7369 255° West 424 488 45,000  Level Salt Lake Center
04:01PM 38.8775 -113.8814 255° West 422 486 45,000  Level Salt Lake Center
04:02PM 38.8417 -114.0544 255° West 420 483 45,000  Level Salt Lake Center
04:03PM 38.8119 -114.1978 255° West 418 481 45,000  Level Salt Lake Center
04:04PM 38.7792 -114.3489 254° West 422 486 45,000  Level Salt Lake Center
04:05PM 38.7500 -114.4886 255° West 423 487 45,000  Level Salt Lake Center
04:06PM 38.7197 -114.6303 255° West 424 488 45,000  Level Salt Lake Center
04:07PM 38.6856 -114.7897 255° West 422 486 45,000  Level Salt Lake Center
04:08PM 38.6558 -114.9292 255° West 423 487 45,000  Level Salt Lake Center
04:09PM 38.6192 -115.0958 254° West 429 494 45,000  Level Salt Lake Center
04:10PM 38.5892 -115.2392 255° West 422 486 45,000  Level Salt Lake Center
04:11PM 38.5581 -115.3753 254° West 423 487 45,000  Level Salt Lake Center
04:13PM 38.5264 -115.5200 254° West 425 489 45,000  Level Salt Lake Center
04:14PM 38.4939 -115.6631 254° West 421 484 45,000  Level Salt Lake Center
04:15PM 38.4617 -115.8086 254° West 424 488 45,000  Level Salt Lake Center
04:16PM 38.4294 -115.9536 254° West 424 488 45,000  Level Salt Lake Center
04:17PM 38.3903 -116.1261 254° West 424 488 45,000  Level Salt Lake Center
04:17PM 38.3775 -116.1856 255° West 425 489 45,000  Level Oakland Center
04:18PM 38.3569 -116.2717 253° West 426 490 45,000  Level Salt Lake Center
04:19PM 38.3239 -116.4153 254° West 424 488 45,000  Level Salt Lake Center
04:19PM 38.3106 -116.4731 254° West 424 488 45,000  Level Oakland Center
04:20PM 38.2772 -116.6175 254° West 425 489 45,000  Level Oakland Center
04:21PM 38.2444 -116.7614 254° West 424 488 45,000  Level Oakland Center
04:22PM 38.2122 -116.9067 254° West 428 493 45,000  Level Oakland Center
04:23PM 38.2011 -116.9942 261° West 425 489 45,000  Level Salt Lake Center
04:24PM 38.1825 -117.1472 261° West 425 489 45,000  Level Salt Lake Center
04:24PM 38.1703 -117.2317 260° West 432 497 45,000  Level Oakland Center
04:25PM 38.1522 -117.3772 261° West 422 486 45,000  Level Oakland Center
04:26PM 38.1339 -117.5156 260° West 425 489 45,000  Level Oakland Center
04:27PM 38.1144 -117.6644 261° West 427 491 45,000  Level Oakland Center
04:28PM 38.0903 -117.8419 260° West 426 490 45,000  Level Oakland Center
04:29PM 38.0706 -117.9903 260° West 427 491 45,000  Level Oakland Center
04:30PM 38.0489 -118.1389 260° West 427 491 45,000  Level Oakland Center
04:31PM 38.0300 -118.2867 261° West 427 491 45,000  Level Oakland Center
04:32PM 38.0092 -118.4358 260° West 427 491 45,000  Level Oakland Center
04:33PM 37.9875 -118.5856 260° West 429 494 45,000 -120 Level Oakland Center
04:34PM 37.9658 -118.7336 260° West 428 493 44,800 -780 Descending Oakland Center
04:35PM 37.9461 -118.8828 261° West 429 494 43,500 -1,440 Descending Oakland Center
04:37PM 37.9239 -119.0333 259° West 433 498 41,900 -1,620 Descending Oakland Center
04:38PM 37.9006 -119.1947 260° West 437 503 40,300 -1,680 Descending Oakland Center
04:39PM 37.8772 -119.3494 259° West 446 513 38,600 -1,740 Descending Oakland Center
04:40PM 37.8544 -119.5053 260° West 450 518 36,800 -1,800 Descending Oakland Center
04:41PM 37.8306 -119.6633 259° West 453 521 35,000 -1,860 Descending Oakland Center
04:42PM 37.8078 -119.8239 260° West 461 531 33,100 -2,100 Descending Oakland Center
04:43PM 37.7764 -120.0186 259° West 471 542 30,800 -2,160 Descending Oakland Center
04:44PM 37.7525 -120.1800 259° West 466 536 28,700 -2,040 Descending Oakland Center
04:45PM 37.7264 -120.3419 259° West 469 540 26,700 -1,980 Descending Oakland Center
04:46PM 37.7014 -120.5058 259° West 472 543 24,700 -2,100 Descending Oakland Center
04:46PM 37.6833 -120.6333 260° West 439 505 23,000 -2,040 Descending Northern Cal TRACON
04:47PM 37.6500 -120.7833 254° West 418 481 21,200 -1,740 Descending Northern Cal TRACON
04:48PM 37.6333 -120.9167 261° West 414 476 19,500 -1,800 Descending Northern Cal TRACON
04:50PM 37.6167 -121.0667 262° West 409 471 17,500 -1,800 Descending Northern Cal TRACON
04:50PM 37.6000 -121.2000 261° West 397 457 16,000 -1,680 Descending Northern Cal TRACON
04:51PM 37.5833 -121.3333 261° West 395 455 14,300 -1,620 Descending Northern Cal TRACON
04:52PM 37.5667 -121.4667 261° West 380 437 12,800 -1,500 Descending Northern Cal TRACON
04:53PM 37.5500 -121.5833 260° West 371 427 11,300 -960 Descending Northern Cal TRACON
04:54PM 37.5333 -121.7000 260° West 368 423 11,000 -480 Descending Northern Cal TRACON
04:55PM 37.5000 -121.8167 250° West 311 358 10,500 -1,200 Descending Northern Cal TRACON
04:56PM 37.4833 -121.9167 258° West 299 344 8,600 -1,800 Descending Northern Cal TRACON
04:57PM 37.4833 -122.0000 270° West 285 328 7,000 -1,500 Descending Northern Cal TRACON
04:58PM 37.5167 -122.0833 297° West 257 296 5,700 -1,440 Descending Northern Cal TRACON
04:59PM 37.5500 -122.1500 302° West 249 287 4,200 -1,560 Descending Northern Cal TRACON
05:00PM 37.5636 -122.2075 287° West 247 284 3,200 -1,440 Descending Oakland Center
05:01PM 37.5828 -122.2811 288° West 235 270 1,900 -1,260 Descending Oakland Center
05:02PM 37.6017 -122.3306 296° West 187 215 700 -840 Descending Oakland Center
05:03PM 37.6172 -122.3733 295° West 173 199 300 -420 Descending Oakland Center
05:05PM 37.6167 -122.3667 322° Northwest  Level FlightAware Approximate